Terminal Aerodrome Forecast
Issued by NWS Kansas City/Pleasant Hill, MO

Home | Current Version | Previous Version | Text Only | Print | Product List | Glossary On
Versions: 1 2 3 4 5 6 7 8 9 10 11 12 13 14 15 16 17
000
FTUS43 KEAX 251738
TAFMCI
TAF
KMCI 251738Z 2518/2618 17007KT P6SM SCT160 BKN200
     FM252200 14008KT P6SM VCTS BKN040CB
     FM260800 17007KT P6SM SCT050
     FM261500 21010KT P6SM SCT080=

USA.gov is the U.S. government's official web portal to all federal, state and local government web resources and services.